Time;durP1;ratioP1;P1;durP2;ratioP2;P2;SDS_P1;SDS_P2;PMS_P1;PMS_P2;Temp;Humidity;BMP_temperature;BMP_pressure;BME280_temperature;BME280_humidity;BME280_pressure;Samples;Min_cycle;Max_cycle;Signal;HPM_P1;HPM_P2
2021/05/11 00:01:17;;;;;;;1.47;1.37;;;16.00;99.90;;;;;;4995742;28;20882;-81
2021/05/11 00:03:44;;;;;;;2.60;1.87;;;16.00;99.90;;;;;;4995674;28;20564;-80
2021/05/11 00:06:11;;;;;;;1.73;1.57;;;15.90;99.90;;;;;;5019042;28;20831;-82
2021/05/11 00:08:38;;;;;;;3.03;1.50;;;15.90;99.90;;;;;;4985497;28;20465;-79
2021/05/11 00:11:04;;;;;;;2.20;1.37;;;15.80;99.90;;;;;;5019435;28;20819;-78
2021/05/11 00:13:31;;;;;;;2.00;1.30;;;15.80;99.90;;;;;;5018696;28;20551;-79
2021/05/11 00:15:58;;;;;;;2.70;1.10;;;15.80;99.90;;;;;;4992097;28;20522;-79
2021/05/11 00:18:26;;;;;;;1.80;1.40;;;15.70;99.90;;;;;;5002298;28;21006;-79
2021/05/11 00:20:53;;;;;;;1.63;1.10;;;15.60;99.90;;;;;;5011401;28;20457;-80
2021/05/11 00:23:20;;;;;;;1.20;1.10;;;15.50;99.90;;;;;;4996262;28;20465;-82
2021/05/11 00:25:46;;;;;;;2.90;1.43;;;15.40;99.90;;;;;;5013609;28;20429;-80
2021/05/11 00:28:13;;;;;;;1.53;1.27;;;15.40;99.90;;;;;;5008650;28;20469;-79
2021/05/11 00:30:39;;;;;;;1.90;1.57;;;15.30;99.90;;;;;;5030519;28;20500;-83
2021/05/11 00:33:06;;;;;;;2.10;1.90;;;15.40;99.90;;;;;;5013680;28;20526;-80
2021/05/11 00:35:32;;;;;;;1.80;1.53;;;15.30;99.90;;;;;;5021384;28;20820;-82
2021/05/11 00:37:59;;;;;;;2.70;1.60;;;15.30;99.90;;;;;;5007056;28;20466;-80
2021/05/11 00:40:25;;;;;;;4.00;1.73;;;15.30;99.90;;;;;;4990269;28;20445;-80
2021/05/11 00:42:52;;;;;;;2.93;1.80;;;15.30;99.90;;;;;;5010701;28;20950;-81
2021/05/11 00:45:18;;;;;;;3.93;1.80;;;15.40;99.90;;;;;;4996285;28;20441;-80
2021/05/11 00:47:45;;;;;;;3.07;2.00;;;15.30;99.90;;;;;;4993813;28;20913;-81
2021/05/11 00:50:12;;;;;;;4.17;1.70;;;15.30;99.90;;;;;;5002878;28;20448;-82
2021/05/11 00:52:40;;;;;;;4.70;2.10;;;15.20;99.90;;;;;;5008484;28;20534;-80
2021/05/11 00:55:07;;;;;;;2.37;1.67;;;15.20;99.90;;;;;;5010573;28;20531;-80
2021/05/11 00:57:35;;;;;;;3.23;2.13;;;15.20;99.90;;;;;;5021325;28;20468;-82
2021/05/11 01:00:04;;;;;;;4.87;1.90;;;15.00;99.90;;;;;;4993605;28;20504;-80
2021/05/11 01:02:31;;;;;;;2.50;1.93;;;15.00;99.90;;;;;;4999684;28;20488;-79
2021/05/11 01:04:58;;;;;;;4.67;2.17;;;14.90;99.90;;;;;;4989436;28;20437;-83
2021/05/11 01:07:24;;;;;;;2.40;1.80;;;14.80;99.90;;;;;;4995948;28;20469;-80
2021/05/11 01:09:51;;;;;;;4.90;2.17;;;14.70;99.90;;;;;;5003012;28;20437;-84
2021/05/11 01:12:17;;;;;;;2.93;2.10;;;14.80;99.90;;;;;;5016259;28;20456;-81
2021/05/11 01:14:45;;;;;;;3.63;1.70;;;14.70;99.90;;;;;;4993109;28;21006;-83
2021/05/11 01:17:17;;;;;;;5.50;2.13;;;14.70;99.90;;;;;;5019212;28;20489;-81
2021/05/11 01:19:49;;;;;;;2.60;1.90;;;14.70;99.90;;;;;;5010089;28;20446;-83
2021/05/11 01:43:58;;;;;;;2.40;2.20;;;14.70;99.90;;;;;;5006366;28;20478;-82
2021/05/11 01:54:27;;;;;;;2.10;1.90;;;14.70;99.90;;;;;;5008766;28;20577;-81
2021/05/11 02:23:46;;;;;;;4.23;3.57;;;14.50;99.90;;;;;;5019265;28;20501;-82
2021/05/11 02:26:13;;;;;;;3.40;3.20;;;14.60;99.90;;;;;;5000303;28;20560;-84
2021/05/11 02:28:39;;;;;;;3.47;2.93;;;14.50;99.90;;;;;;5002066;28;20706;-82
2021/05/11 02:31:08;;;;;;;4.23;3.23;;;14.50;99.90;;;;;;4984846;28;20531;-83
2021/05/11 02:33:35;;;;;;;3.10;2.90;;;14.50;99.90;;;;;;5006467;28;20847;-83
2021/05/11 02:36:01;;;;;;;3.10;2.90;;;14.40;99.90;;;;;;4996701;28;20506;-81
2021/05/11 02:38:28;;;;;;;3.23;3.03;;;14.40;99.90;;;;;;4992620;28;20470;-81
2021/05/11 02:40:55;;;;;;;3.40;3.10;;;14.40;99.90;;;;;;5009280;28;20434;-82
2021/05/11 02:43:26;;;;;;;2.90;2.70;;;14.50;99.90;;;;;;5011456;28;20461;-83
2021/05/11 02:45:53;;;;;;;3.97;3.67;;;14.50;99.90;;;;;;5005312;28;20464;-83
2021/05/11 02:48:19;;;;;;;3.43;3.13;;;14.40;99.90;;;;;;5002562;28;20473;-81
2021/05/11 02:50:46;;;;;;;4.30;3.00;;;14.40;99.90;;;;;;4982286;28;20513;-83
2021/05/11 02:53:12;;;;;;;3.20;2.90;;;14.50;99.90;;;;;;4981244;28;20463;-83
2021/05/11 02:55:39;;;;;;;4.03;2.97;;;14.50;99.90;;;;;;4994669;28;20459;-83
2021/05/11 02:58:05;;;;;;;3.30;3.00;;;14.50;99.90;;;;;;4988096;28;20499;-83
2021/05/11 03:00:32;;;;;;;3.20;2.90;;;14.40;99.90;;;;;;4996895;28;20806;-82
2021/05/11 03:02:58;;;;;;;3.90;3.50;;;14.40;99.90;;;;;;5021612;28;20471;-83
2021/05/11 03:05:25;;;;;;;3.57;3.27;;;14.60;99.90;;;;;;5029662;28;20434;-83
2021/05/11 03:07:52;;;;;;;3.67;3.30;;;14.50;99.90;;;;;;5016746;28;20501;-84
2021/05/11 03:10:19;;;;;;;3.53;3.23;;;14.50;99.90;;;;;;5011990;28;20994;-83
2021/05/11 03:12:46;;;;;;;3.40;3.20;;;14.50;99.90;;;;;;5007974;28;20463;-82
2021/05/11 03:15:13;;;;;;;3.83;3.53;;;14.50;99.90;;;;;;5014556;28;20481;-81
2021/05/11 03:17:40;;;;;;;4.13;3.20;;;14.40;99.90;;;;;;5013951;28;20629;-79
2021/05/11 03:20:09;;;;;;;3.43;3.23;;;14.50;99.90;;;;;;5014630;28;20473;-80
2021/05/11 03:22:35;;;;;;;4.50;3.67;;;14.50;99.90;;;;;;5028903;28;20463;-82
2021/05/11 03:25:04;;;;;;;5.03;4.03;;;14.50;99.90;;;;;;5014677;28;20513;-79
2021/05/11 03:27:30;;;;;;;3.83;3.53;;;14.40;99.90;;;;;;4984910;28;20477;-80
2021/05/11 03:29:57;;;;;;;4.40;4.00;;;14.40;99.90;;;;;;4996069;28;20955;-80
2021/05/11 03:32:23;;;;;;;4.20;3.80;;;14.40;99.90;;;;;;4996859;28;20467;-79
2021/05/11 03:34:51;;;;;;;5.57;4.60;;;14.40;99.90;;;;;;5001540;28;20443;-82
2021/05/11 03:37:17;;;;;;;4.17;3.77;;;14.40;99.90;;;;;;4994284;28;20459;-79
2021/05/11 03:39:44;;;;;;;4.90;4.50;;;14.40;99.90;;;;;;4995836;28;20463;-82
2021/05/11 03:42:51;;;;;;;4.37;4.07;;;14.30;99.90;;;;;;5002079;28;20546;-83
2021/05/11 03:45:07;;;;;;;5.60;4.00;;;14.30;99.90;;;;;;5008275;28;20438;-82
2021/05/11 03:47:44;;;;;;;4.33;3.90;;;14.20;99.90;;;;;;4979500;28;20458;-80
2021/05/11 03:50:14;;;;;;;6.03;4.30;;;14.30;99.90;;;;;;5012539;28;20496;-82
2021/05/11 03:52:43;;;;;;;4.70;4.30;;;14.30;99.90;;;;;;4994065;28;20550;-78
2021/05/11 03:55:10;;;;;;;4.30;3.90;;;14.30;99.90;;;;;;4994315;28;20443;-80
2021/05/11 03:57:37;;;;;;;3.93;3.63;;;14.30;99.90;;;;;;5021210;28;20467;-78
2021/05/11 04:00:05;;;;;;;4.67;4.27;;;14.20;99.90;;;;;;5018731;28;20427;-79
2021/05/11 04:02:33;;;;;;;4.57;4.17;;;14.30;99.90;;;;;;5013501;28;21065;-79
2021/05/11 04:05:06;;;;;;;4.70;3.87;;;14.20;99.90;;;;;;5009810;28;20805;-78
2021/05/11 04:07:34;;;;;;;4.03;3.70;;;14.20;99.90;;;;;;4995573;28;20889;-79
2021/05/11 04:10:05;;;;;;;4.27;3.70;;;14.20;99.90;;;;;;5029731;28;20937;-79
2021/05/11 04:12:51;;;;;;;4.90;4.50;;;14.30;99.90;;;;;;5017291;28;20475;-79
2021/05/11 04:18:04;;;;;;;5.63;4.17;;;14.20;99.90;;;;;;4997459;28;20514;-81
2021/05/11 04:20:31;;;;;;;5.80;4.60;;;14.20;99.90;;;;;;5003419;28;20450;-83
2021/05/11 04:22:58;;;;;;;5.40;4.70;;;14.20;99.90;;;;;;5010974;28;20606;-78
2021/05/11 04:25:25;;;;;;;8.43;4.97;;;14.20;99.90;;;;;;4998731;28;20435;-79
2021/05/11 04:27:52;;;;;;;6.07;4.73;;;14.20;99.90;;;;;;5002914;28;20987;-82
2021/05/11 04:30:20;;;;;;;5.40;4.90;;;14.30;99.90;;;;;;5010352;28;20439;-81
2021/05/11 04:32:48;;;;;;;5.00;4.50;;;14.30;99.90;;;;;;4996485;28;20509;-80
2021/05/11 04:35:15;;;;;;;6.53;4.50;;;14.30;99.90;;;;;;5004705;28;20440;-80
2021/05/11 04:37:43;;;;;;;5.37;4.87;;;14.30;99.90;;;;;;4992609;28;20574;-82
2021/05/11 04:40:11;;;;;;;5.00;4.60;;;14.30;99.90;;;;;;4996057;28;20965;-80
2021/05/11 04:42:42;;;;;;;5.10;4.70;;;14.30;99.90;;;;;;5000375;28;20466;-82
2021/05/11 04:45:11;;;;;;;10.33;5.53;;;14.30;99.90;;;;;;4985919;28;20488;-82
2021/05/11 04:47:50;;;;;;;5.37;4.87;;;14.20;99.90;;;;;;4994791;28;20486;-79
2021/05/11 04:50:23;;;;;;;5.13;4.70;;;14.20;99.90;;;;;;5022086;28;20496;-79
2021/05/11 04:52:50;;;;;;;5.63;5.23;;;14.20;99.90;;;;;;4995723;28;20512;-79
2021/05/11 04:55:18;;;;;;;7.40;5.57;;;14.20;99.90;;;;;;5011654;28;20448;-79
2021/05/11 04:57:46;;;;;;;5.37;4.90;;;14.20;99.90;;;;;;4979969;28;20481;-81
2021/05/11 05:00:14;;;;;;;6.53;5.93;;;14.30;99.90;;;;;;4977195;28;20487;-80
2021/05/11 05:02:54;;;;;;;5.73;5.17;;;14.30;99.90;;;;;;5020548;28;20876;-83
2021/05/11 05:05:25;;;;;;;6.73;5.57;;;14.30;99.90;;;;;;5005956;28;20448;-81
2021/05/11 05:07:52;;;;;;;5.80;5.30;;;14.30;99.90;;;;;;4999884;28;20478;-81
2021/05/11 05:10:19;;;;;;;7.40;5.63;;;14.40;99.90;;;;;;5009082;28;20443;-82
2021/05/11 05:12:52;;;;;;;5.83;5.33;;;14.40;99.90;;;;;;5013689;28;20470;-81
2021/05/11 05:15:19;;;;;;;6.40;4.57;;;14.30;99.90;;;;;;4992462;28;20814;-79
2021/05/11 05:17:46;;;;;;;7.13;5.47;;;14.30;99.90;;;;;;5001749;28;20504;-80
2021/05/11 05:20:13;;;;;;;8.13;4.70;;;14.30;99.90;;;;;;4985451;28;20438;-82
2021/05/11 05:22:44;;;;;;;5.00;4.57;;;14.30;99.90;;;;;;5000134;28;20470;-83
2021/05/11 05:25:14;;;;;;;6.17;4.63;;;14.30;99.90;;;;;;5003060;28;20427;-81
2021/05/11 05:27:57;;;;;;;8.93;5.30;;;14.30;99.90;;;;;;5000941;28;20639;-83
2021/05/11 05:30:24;;;;;;;5.87;5.27;;;14.30;99.90;;;;;;5004903;28;20426;-83
2021/05/11 05:32:58;;;;;;;5.83;5.33;;;14.40;99.90;;;;;;4993329;28;20459;-79
2021/05/11 05:35:26;;;;;;;6.33;5.77;;;14.50;99.90;;;;;;4999683;28;20479;-81
2021/05/11 05:37:53;;;;;;;5.40;4.63;;;14.60;99.90;;;;;;4994029;28;20556;-79
2021/05/11 05:40:21;;;;;;;5.90;5.27;;;14.70;99.90;;;;;;4984634;28;20443;-79
2021/05/11 05:42:49;;;;;;;6.63;5.07;;;14.90;99.90;;;;;;4996386;28;20508;-81
2021/05/11 05:45:19;;;;;;;5.10;4.50;;;15.00;99.90;;;;;;5009685;28;20444;-79
2021/05/11 05:47:53;;;;;;;5.97;4.20;;;14.90;99.90;;;;;;5005207;28;20537;-78
2021/05/11 05:50:23;;;;;;;5.07;4.13;;;15.00;99.90;;;;;;4991512;28;20449;-80
2021/05/11 05:53:01;;;;;;;6.23;3.47;;;15.00;99.90;;;;;;5003445;28;20889;-83
2021/05/11 05:55:33;;;;;;;5.13;4.10;;;14.90;99.90;;;;;;4993214;28;20440;-81
2021/05/11 05:58:03;;;;;;;4.33;3.43;;;15.00;99.90;;;;;;5010205;28;20502;-81
2021/05/11 06:00:30;;;;;;;5.10;4.00;;;14.90;99.90;;;;;;4981192;28;20483;-82
2021/05/11 06:03:05;;;;;;;3.50;3.20;;;14.90;99.90;;;;;;4975435;28;20475;-81
2021/05/11 06:05:33;;;;;;;6.10;3.97;;;14.90;99.90;;;;;;5002619;28;20487;-81
2021/05/11 06:08:02;;;;;;;5.97;3.20;;;14.80;99.90;;;;;;5007169;28;20487;-82
2021/05/11 06:10:30;;;;;;;4.93;3.57;;;14.80;99.90;;;;;;5004504;28;20494;-82
2021/05/11 06:13:08;;;;;;;4.10;3.20;;;14.80;99.90;;;;;;5011086;28;20534;-82
2021/05/11 06:18:22;;;;;;;5.43;3.10;;;14.70;99.90;;;;;;4992629;28;20479;-83
2021/05/11 06:20:49;;;;;;;4.40;3.13;;;14.60;99.90;;;;;;4978758;28;20459;-82
2021/05/11 06:23:18;;;;;;;8.90;3.90;;;14.60;99.90;;;;;;5001712;28;20475;-80
2021/05/11 06:25:45;;;;;;;3.73;3.43;;;14.60;99.90;;;;;;5006999;28;20428;-83
2021/05/11 06:28:12;;;;;;;4.77;3.30;;;14.60;99.90;;;;;;5007946;28;20471;-83
2021/05/11 06:30:39;;;;;;;4.67;2.97;;;14.50;99.90;;;;;;4999885;28;20467;-82
2021/05/11 06:33:07;;;;;;;4.93;3.27;;;14.50;99.90;;;;;;5026732;28;20466;-83
2021/05/11 06:35:35;;;;;;;4.40;3.23;;;14.60;99.90;;;;;;5015688;28;20453;-81
2021/05/11 06:38:02;;;;;;;5.60;3.87;;;14.50;99.90;;;;;;5006238;28;20992;-81
2021/05/11 06:40:32;;;;;;;6.27;3.90;;;14.60;99.90;;;;;;5010270;28;20497;-81
2021/05/11 06:43:00;;;;;;;10.53;4.50;;;14.60;99.90;;;;;;5002533;28;20468;-80
2021/05/11 06:48:16;;;;;;;7.23;4.90;;;14.60;99.90;;;;;;4993516;28;20480;-80
2021/05/11 06:53:51;;;;;;;6.43;3.90;;;14.70;99.90;;;;;;4997470;28;20472;-82
2021/05/11 06:56:19;;;;;;;4.30;3.90;;;14.80;99.90;;;;;;5023074;28;20470;-85
2021/05/11 06:58:47;;;;;;;5.30;3.67;;;14.90;99.90;;;;;;4968288;28;20471;-81
2021/05/11 07:01:22;;;;;;;4.00;2.93;;;15.00;99.90;;;;;;5009280;28;20440;-83
2021/05/11 07:03:51;;;;;;;4.53;2.30;;;15.10;99.90;;;;;;5012464;28;21086;-83
2021/05/11 07:06:18;;;;;;;3.40;2.80;;;15.20;99.90;;;;;;5007730;28;20459;-83
2021/05/11 07:08:54;;;;;;;4.13;3.73;;;15.20;99.90;;;;;;4998266;28;20473;-80
2021/05/11 07:13:49;;;;;;;7.50;3.87;;;15.40;99.90;;;;;;5004748;28;20464;-83
2021/05/11 07:16:18;;;;;;;4.60;3.03;;;15.50;99.90;;;;;;4991332;28;20503;-82
2021/05/11 07:18:45;;;;;;;8.10;3.40;;;15.50;99.90;;;;;;5010133;28;20469;-82
2021/05/11 07:21:12;;;;;;;5.17;2.70;;;15.60;99.90;;;;;;5010347;28;21165;-82
2021/05/11 07:23:40;;;;;;;3.20;2.90;;;15.60;99.90;;;;;;5026896;28;20819;-81
2021/05/11 07:29:07;;;;;;;5.53;3.33;;;15.60;99.90;;;;;;5010672;28;20476;-81
2021/05/11 07:31:36;;;;;;;5.50;3.17;;;15.50;99.90;;;;;;5003256;28;21014;-82
2021/05/11 07:34:07;;;;;;;5.73;4.23;;;15.50;99.90;;;;;;5006529;28;20474;-82
2021/05/11 07:36:34;;;;;;;6.07;3.30;;;15.50;99.90;;;;;;4998185;28;20828;-81
2021/05/11 07:39:02;;;;;;;5.80;3.60;;;15.50;99.90;;;;;;5019600;28;20493;-82
2021/05/11 07:41:29;;;;;;;4.40;2.63;;;15.50;99.90;;;;;;4996865;28;20440;-80
2021/05/11 07:43:59;;;;;;;5.03;2.80;;;15.50;99.90;;;;;;4994726;28;20454;-80
2021/05/11 08:15:44;;;;;;;5.27;2.10;;;16.10;99.90;;;;;;5002601;28;20437;-80
2021/05/11 08:29:05;;;;;;;6.80;2.20;;;17.00;99.90;;;;;;5012105;28;20468;-79
2021/05/11 08:31:32;;;;;;;3.63;2.33;;;16.90;99.90;;;;;;4996544;28;20429;-79
2021/05/11 08:33:59;;;;;;;6.87;2.60;;;16.80;99.90;;;;;;5008898;28;20906;-78
2021/05/11 08:36:27;;;;;;;3.53;2.20;;;16.70;99.90;;;;;;5003849;28;20500;-80
2021/05/11 08:38:57;;;;;;;6.80;2.40;;;16.60;99.90;;;;;;4994713;28;20486;-81
2021/05/11 08:41:24;;;;;;;3.43;2.20;;;16.60;99.90;;;;;;5017784;28;20444;-79
2021/05/11 08:43:51;;;;;;;3.57;2.30;;;16.50;99.90;;;;;;4994678;28;20478;-80
2021/05/11 08:46:18;;;;;;;3.70;2.20;;;16.50;99.90;;;;;;5023631;28;20460;-80
2021/05/11 08:48:47;;;;;;;9.73;2.83;;;16.40;99.90;;;;;;4986655;28;20470;-81
2021/05/11 08:51:21;;;;;;;3.83;2.27;;;16.40;99.90;;;;;;4999808;28;20457;-81
2021/05/11 09:35:17;;;;;;;16.47;7.63;;;18.50;99.90;;;;;;5009405;28;20449;-80
2021/05/11 09:59:47;;;;;;;4.33;2.63;;;19.10;99.90;;;;;;5005026;28;20535;-80
2021/05/11 10:49:21;;;;;;;7.37;3.27;;;17.70;99.90;;;;;;5019305;28;20476;-81
2021/05/11 10:52:14;;;;;;;6.37;3.80;;;17.60;99.90;;;;;;4991522;28;20446;-83
2021/05/11 10:54:53;;;;;;;8.10;4.27;;;17.60;99.90;;;;;;5007356;28;20532;-81
2021/05/11 10:57:39;;;;;;;7.00;3.83;;;17.50;99.90;;;;;;5001834;28;20479;-83
2021/05/11 11:01:03;;;;;;;7.70;3.83;;;17.50;99.90;;;;;;4991130;28;20480;-82
2021/05/11 11:03:26;;;;;;;7.60;3.70;;;17.40;99.90;;;;;;4993587;28;20870;-82
2021/05/11 11:05:54;;;;;;;5.93;4.03;;;17.20;99.90;;;;;;4994515;28;23338;-81
2021/05/11 11:08:44;;;;;;;5.20;3.73;;;17.20;99.90;;;;;;5010269;28;20971;-81
2021/05/11 11:11:19;;;;;;;7.80;4.13;;;17.30;99.90;;;;;;5008358;28;20480;-82
2021/05/11 11:13:50;;;;;;;5.50;3.57;;;17.10;99.90;;;;;;5026711;28;20464;-83
2021/05/11 11:16:38;;;;;;;8.47;5.23;;;17.00;99.90;;;;;;5002474;28;20445;-82
2021/05/11 11:19:09;;;;;;;7.87;5.50;;;17.00;99.90;;;;;;5011906;28;20983;-81
2021/05/11 11:24:32;;;;;;;9.50;4.77;;;17.00;99.90;;;;;;5015883;28;20479;-82
2021/05/11 11:26:59;;;;;;;9.20;4.60;;;17.00;99.90;;;;;;5027181;28;20475;-80
2021/05/11 11:29:27;;;;;;;7.90;4.00;;;17.10;99.90;;;;;;4994696;28;20982;-81
2021/05/11 11:31:56;;;;;;;7.90;4.77;;;17.00;99.90;;;;;;4978722;28;20537;-81
2021/05/11 11:34:39;;;;;;;7.37;4.80;;;17.00;99.90;;;;;;4994460;28;20454;-80
2021/05/11 11:37:11;;;;;;;6.43;4.60;;;17.00;99.90;;;;;;4994573;28;20834;-82
2021/05/11 11:39:42;;;;;;;5.33;4.87;;;17.00;99.90;;;;;;4994801;28;20493;-82
2021/05/11 11:42:16;;;;;;;5.47;4.97;;;17.00;99.90;;;;;;4994463;28;20978;-82
2021/05/11 11:44:44;;;;;;;7.63;5.30;;;17.00;99.90;;;;;;5010758;28;20528;-83
2021/05/11 11:47:12;;;;;;;5.17;4.67;;;16.90;99.90;;;;;;4993782;28;20984;-78
2021/05/11 11:49:45;;;;;;;6.50;5.63;;;16.90;99.90;;;;;;5011510;28;20456;-80
2021/05/11 11:52:21;;;;;;;5.80;5.27;;;16.80;99.90;;;;;;4978181;28;20448;-81
2021/05/11 11:57:53;;;;;;;6.13;5.53;;;16.60;99.90;;;;;;5006630;28;20468;-79
2021/05/11 12:00:23;;;;;;;9.33;5.47;;;16.70;99.90;;;;;;5030110;28;20495;-80
2021/05/11 12:03:10;;;;;;;8.37;6.47;;;16.60;99.90;;;;;;5014389;28;20542;-82
2021/05/11 12:05:44;;;;;;;5.67;4.80;;;16.60;99.90;;;;;;5007343;28;20441;-84
2021/05/11 12:10:53;;;;;;;7.60;5.50;;;16.50;99.90;;;;;;5015502;28;20476;-80
2021/05/11 12:13:22;;;;;;;6.23;5.63;;;16.60;99.90;;;;;;4994738;28;20512;-81
2021/05/11 12:16:28;;;;;;;8.10;5.37;;;16.60;99.90;;;;;;5010438;28;20766;-80
2021/05/11 12:19:09;;;;;;;7.33;4.53;;;16.60;99.90;;;;;;4973111;28;20463;-80
2021/05/11 12:22:01;;;;;;;6.73;5.13;;;16.60;99.90;;;;;;4973338;28;21032;-80
2021/05/11 12:24:30;;;;;;;7.20;5.00;;;16.50;99.90;;;;;;4983740;28;20462;-82
2021/05/11 12:27:37;;;;;;;7.90;4.73;;;16.50;99.90;;;;;;5003904;28;20503;-81
2021/05/11 12:30:12;;;;;;;6.10;5.23;;;16.60;99.90;;;;;;4991508;28;20513;-79
2021/05/11 12:32:39;;;;;;;9.10;5.50;;;16.60;99.90;;;;;;4994119;28;20530;-80
2021/05/11 12:35:10;;;;;;;7.50;5.63;;;16.60;99.90;;;;;;5006550;28;20442;-79
2021/05/11 12:37:52;;;;;;;6.87;5.93;;;16.60;99.90;;;;;;5009301;28;20465;-80
2021/05/11 12:40:32;;;;;;;9.10;5.93;;;16.60;99.90;;;;;;5010047;28;20488;-79
2021/05/11 12:43:02;;;;;;;6.67;5.80;;;16.60;99.90;;;;;;5008916;28;20469;-79
2021/05/11 12:45:35;;;;;;;9.73;6.43;;;16.60;99.90;;;;;;4993255;28;20453;-80
2021/05/11 12:48:05;;;;;;;8.90;6.90;;;16.60;99.90;;;;;;4992987;28;20477;-81
2021/05/11 12:50:39;;;;;;;7.43;6.40;;;16.80;99.90;;;;;;4994155;28;20465;-79
2021/05/11 13:26:00;;;;;;;6.50;4.87;;;17.00;99.90;;;;;;5005717;28;20503;-80
2021/05/11 13:36:23;;;;;;;8.30;4.60;;;17.10;99.90;;;;;;5017273;28;20836;-83
2021/05/11 13:38:50;;;;;;;16.63;6.07;;;17.10;99.90;;;;;;4996919;28;20473;-81
2021/05/11 13:41:18;;;;;;;5.90;4.00;;;17.20;99.90;;;;;;5010829;28;20590;-82
2021/05/11 13:43:45;;;;;;;7.10;5.00;;;17.10;99.90;;;;;;4993130;28;20481;-82
2021/05/11 13:46:11;;;;;;;8.90;5.30;;;17.00;99.90;;;;;;4994299;28;20504;-82
2021/05/11 13:48:42;;;;;;;8.37;5.70;;;16.80;99.90;;;;;;5022255;28;20465;-79
2021/05/11 13:51:27;;;;;;;9.50;4.90;;;16.70;99.90;;;;;;5006339;28;20502;-82
2021/05/11 13:54:05;;;;;;;7.07;5.67;;;16.70;99.90;;;;;;5022865;28;20491;-81
2021/05/11 14:02:31;;;;;;;5.10;4.60;;;16.30;99.90;;;;;;5020864;28;20448;-81
2021/05/11 14:04:59;;;;;;;7.63;4.83;;;16.30;99.90;;;;;;5019243;28;20447;-83
2021/05/11 14:07:26;;;;;;;10.20;4.80;;;16.40;99.90;;;;;;5011613;28;20481;-85
2021/05/11 14:09:53;;;;;;;9.20;4.57;;;16.50;99.90;;;;;;5002530;28;20434;-81
2021/05/11 14:12:20;;;;;;;7.77;5.90;;;16.40;99.90;;;;;;5016047;28;20461;-82
2021/05/11 14:14:47;;;;;;;6.07;4.93;;;16.40;99.90;;;;;;4984592;28;20463;-82
2021/05/11 14:17:15;;;;;;;8.63;5.37;;;16.40;99.90;;;;;;5011878;28;20457;-83
2021/05/11 14:19:43;;;;;;;8.93;5.20;;;16.40;99.90;;;;;;4994384;28;20441;-83
2021/05/11 14:22:10;;;;;;;7.80;5.63;;;16.40;99.90;;;;;;5011523;28;20456;-84
2021/05/11 14:24:37;;;;;;;6.40;5.80;;;16.40;99.90;;;;;;4996931;28;20445;-84
2021/05/11 14:27:06;;;;;;;9.40;7.20;;;16.40;99.90;;;;;;4992053;28;20860;-80
2021/05/11 14:29:32;;;;;;;8.23;6.37;;;16.30;99.90;;;;;;5004130;28;20444;-81
2021/05/11 14:31:59;;;;;;;8.13;6.93;;;16.40;99.90;;;;;;5011871;28;20511;-83
2021/05/11 14:34:27;;;;;;;6.77;5.67;;;16.40;99.90;;;;;;5000516;28;20522;-82
2021/05/11 14:36:54;;;;;;;7.73;7.00;;;16.40;99.90;;;;;;5021576;28;20516;-82
2021/05/11 14:39:24;;;;;;;6.87;6.17;;;16.50;99.90;;;;;;4992954;28;20971;-82
2021/05/11 14:41:55;;;;;;;5.90;5.30;;;16.50;99.90;;;;;;5020104;28;20507;-82
2021/05/11 14:44:25;;;;;;;6.13;5.50;;;16.60;99.90;;;;;;5011822;28;20445;-79
2021/05/11 14:46:52;;;;;;;6.77;5.23;;;16.50;99.90;;;;;;5006351;28;21557;-81
2021/05/11 14:49:21;;;;;;;6.47;4.33;;;16.60;99.90;;;;;;5009601;28;20948;-83
2021/05/11 14:51:48;;;;;;;7.00;5.27;;;16.70;99.90;;;;;;5026880;28;20499;-81
2021/05/11 14:54:15;;;;;;;5.73;5.23;;;16.70;99.90;;;;;;5014511;28;20884;-82
2021/05/11 14:56:42;;;;;;;5.80;4.80;;;16.70;99.90;;;;;;5012221;28;20466;-79
2021/05/11 14:59:11;;;;;;;7.63;4.43;;;16.80;99.90;;;;;;5010908;28;20520;-83
2021/05/11 15:01:41;;;;;;;7.00;5.67;;;16.70;99.90;;;;;;5015598;28;20488;-81
2021/05/11 15:04:08;;;;;;;6.90;5.77;;;16.70;99.90;;;;;;5014053;28;20990;-81
2021/05/11 15:06:35;;;;;;;9.93;5.23;;;16.90;99.90;;;;;;5029945;28;20476;-77
2021/05/11 15:09:06;;;;;;;6.70;5.17;;;16.90;99.90;;;;;;5014308;28;20541;-79
2021/05/11 15:11:37;;;;;;;7.03;5.23;;;16.90;99.90;;;;;;5026275;28;20518;-81
2021/05/11 15:14:05;;;;;;;7.37;5.07;;;16.80;99.90;;;;;;5010542;28;20868;-80
2021/05/11 15:16:39;;;;;;;6.20;5.27;;;16.80;99.90;;;;;;5002793;28;20462;-80
2021/05/11 15:19:07;;;;;;;11.10;5.70;;;16.80;99.90;;;;;;4994812;28;20859;-78
2021/05/11 15:21:34;;;;;;;10.23;5.03;;;16.70;99.90;;;;;;5022291;28;20465;-78
2021/05/11 15:24:02;;;;;;;6.50;5.60;;;16.70;99.90;;;;;;5014031;28;20555;-80
2021/05/11 15:26:36;;;;;;;6.53;5.83;;;16.60;99.90;;;;;;4997094;28;20465;-78
2021/05/11 15:29:03;;;;;;;9.80;7.63;;;16.60;99.90;;;;;;5010540;28;20472;-79
2021/05/11 15:31:30;;;;;;;11.80;9.00;;;16.50;99.90;;;;;;5013322;28;20432;-78
2021/05/11 15:33:57;;;;;;;10.10;7.70;;;16.50;99.90;;;;;;5029985;28;20523;-78
2021/05/11 15:36:24;;;;;;;10.17;7.37;;;16.50;99.90;;;;;;5010402;28;20460;-79
2021/05/11 15:38:51;;;;;;;10.27;6.97;;;16.40;99.90;;;;;;5013444;28;20465;-80
2021/05/11 15:41:23;;;;;;;11.90;6.30;;;16.30;99.90;;;;;;5009504;28;20955;-79
2021/05/11 15:43:50;;;;;;;8.20;6.03;;;16.20;99.90;;;;;;4994102;28;20516;-79
2021/05/11 15:46:19;;;;;;;9.00;6.03;;;16.30;99.90;;;;;;5024558;28;20460;-79
2021/05/11 15:48:46;;;;;;;6.90;5.53;;;16.20;99.90;;;;;;4993944;28;20832;-78
2021/05/11 15:51:13;;;;;;;9.20;5.90;;;16.20;99.90;;;;;;4995182;28;20809;-79
2021/05/11 15:53:41;;;;;;;7.50;5.87;;;16.20;99.90;;;;;;5009832;28;20516;-78
2021/05/11 15:56:07;;;;;;;13.00;6.90;;;16.20;99.90;;;;;;5004042;28;20559;-81
2021/05/11 15:58:34;;;;;;;6.77;5.97;;;16.20;99.90;;;;;;5029388;28;20461;-81
2021/05/11 16:01:02;;;;;;;10.27;6.63;;;16.10;99.90;;;;;;5029642;28;20461;-81
2021/05/11 16:03:29;;;;;;;6.80;6.00;;;16.00;99.90;;;;;;5005916;28;20879;-80
2021/05/11 16:05:56;;;;;;;7.30;6.43;;;16.00;99.90;;;;;;4999325;28;20469;-82
2021/05/11 16:08:25;;;;;;;7.53;6.77;;;16.00;99.90;;;;;;4979370;28;20557;-79
2021/05/11 16:10:52;;;;;;;6.80;5.53;;;16.10;99.90;;;;;;5010402;28;20438;-79
2021/05/11 16:13:24;;;;;;;9.33;6.37;;;16.10;99.90;;;;;;4999168;28;21006;-80
2021/05/11 16:15:51;;;;;;;11.33;7.63;;;16.20;99.90;;;;;;5011697;28;20448;-78
2021/05/11 16:18:18;;;;;;;7.10;6.40;;;16.10;99.90;;;;;;4993392;28;20466;-79
2021/05/11 16:20:45;;;;;;;7.17;6.47;;;16.00;99.90;;;;;;5005606;28;20536;-78
2021/05/11 16:23:12;;;;;;;8.30;7.37;;;15.90;99.90;;;;;;5009226;28;20894;-81
2021/05/11 16:25:39;;;;;;;9.20;7.30;;;15.90;99.90;;;;;;4995032;28;20426;-83
2021/05/11 16:28:08;;;;;;;8.73;7.10;;;15.90;99.90;;;;;;5012674;28;20457;-82
2021/05/11 16:30:38;;;;;;;7.53;6.63;;;15.90;99.90;;;;;;5005056;28;20441;-85
2021/05/11 16:33:09;;;;;;;7.83;6.83;;;15.70;99.90;;;;;;4993109;28;20464;-80
2021/05/11 16:35:42;;;;;;;8.80;7.50;;;15.60;99.90;;;;;;5009441;28;20662;-80
2021/05/11 16:38:10;;;;;;;9.00;7.10;;;15.60;99.90;;;;;;5006226;28;20893;-80
2021/05/11 16:40:41;;;;;;;8.30;7.40;;;15.60;99.90;;;;;;5020663;28;20457;-83
2021/05/11 16:43:10;;;;;;;14.47;10.27;;;15.50;99.90;;;;;;5009423;28;20460;-83
2021/05/11 16:45:38;;;;;;;16.40;10.27;;;15.50;99.90;;;;;;4993436;28;20437;-82
2021/05/11 16:48:05;;;;;;;11.87;8.80;;;15.50;99.90;;;;;;5009234;28;20467;-84
2021/05/11 16:50:34;;;;;;;9.47;8.13;;;15.40;99.90;;;;;;5009032;28;20868;-83
2021/05/11 16:53:04;;;;;;;11.67;9.13;;;15.40;99.90;;;;;;5012566;28;20473;-80
2021/05/11 16:55:34;;;;;;;12.67;9.27;;;15.30;99.90;;;;;;5009711;28;20460;-82
2021/05/11 16:58:04;;;;;;;12.40;7.97;;;15.30;99.90;;;;;;5005565;28;20476;-81
2021/05/11 17:00:32;;;;;;;8.23;7.23;;;15.40;99.90;;;;;;5009264;28;20467;-82
2021/05/11 17:03:03;;;;;;;11.70;8.20;;;15.40;99.90;;;;;;4997883;28;20509;-83
2021/05/11 17:05:31;;;;;;;9.87;8.87;;;15.40;99.90;;;;;;5013851;28;20604;-83
2021/05/11 17:07:58;;;;;;;10.53;9.40;;;15.40;99.90;;;;;;5011252;28;20460;-82
2021/05/11 17:10:27;;;;;;;11.00;9.77;;;15.40;99.90;;;;;;4996270;28;20946;-83
2021/05/11 17:13:01;;;;;;;12.93;11.63;;;15.40;99.90;;;;;;5005969;28;20546;-81
2021/05/11 17:15:30;;;;;;;11.03;9.90;;;15.30;99.90;;;;;;5028527;28;20483;-82
2021/05/11 17:17:58;;;;;;;10.67;9.27;;;15.30;99.90;;;;;;5010418;28;21020;-81
2021/05/11 17:20:28;;;;;;;12.73;8.70;;;15.30;99.90;;;;;;5012028;28;20498;-82
2021/05/11 17:22:57;;;;;;;15.60;11.27;;;15.30;99.90;;;;;;5011797;28;20469;-80
2021/05/11 17:25:28;;;;;;;19.03;13.37;;;15.40;99.90;;;;;;5012432;28;20501;-81
2021/05/11 17:27:56;;;;;;;19.47;17.47;;;15.50;99.90;;;;;;5012218;28;20522;-82
2021/05/11 17:30:24;;;;;;;20.60;14.83;;;15.50;99.90;;;;;;5005934;28;20434;-81
2021/05/11 17:32:51;;;;;;;15.70;12.20;;;15.40;99.90;;;;;;4993355;28;20916;-81
2021/05/11 17:35:18;;;;;;;13.60;12.20;;;15.30;99.90;;;;;;4994328;28;20517;-82
2021/05/11 17:37:48;;;;;;;15.67;11.60;;;15.30;99.90;;;;;;5008139;28;20454;-81